createdAt,value
2022-09-04T00:00:46.456Z,0.00
2022-09-04T00:01:46.445Z,0.00
2022-09-04T00:02:46.431Z,0.00
2022-09-04T00:03:46.675Z,0.00
2022-09-04T00:04:46.569Z,0.00
2022-09-04T00:05:46.410Z,0.00
2022-09-04T00:06:46.385Z,0.00
2022-09-04T00:07:46.373Z,0.00
2022-09-04T00:08:46.364Z,0.00
2022-09-04T00:09:46.361Z,0.00
2022-09-04T00:10:46.342Z,0.00
2022-09-04T00:11:46.330Z,0.00
2022-09-04T00:12:46.319Z,0.00
2022-09-04T00:13:46.311Z,0.00
2022-09-04T00:14:46.318Z,0.00
2022-09-04T00:15:46.333Z,0.00
2022-09-04T00:16:46.450Z,0.00
2022-09-04T00:17:46.267Z,0.00
2022-09-04T00:18:46.259Z,0.00
2022-09-04T00:19:46.297Z,0.00
2022-09-04T00:20:46.232Z,0.00
2022-09-04T00:21:46.227Z,0.00
2022-09-04T00:22:46.212Z,0.00
2022-09-04T00:23:46.199Z,0.00
2022-09-04T00:24:46.227Z,0.00
2022-09-04T00:25:46.177Z,0.00
2022-09-04T00:26:46.170Z,0.00
2022-09-04T00:27:46.154Z,0.00
2022-09-04T00:28:46.147Z,0.00
2022-09-04T00:29:46.145Z,0.00
2022-09-04T00:30:46.207Z,0.00
2022-09-04T00:31:46.111Z,0.00
2022-09-04T00:32:46.106Z,0.00
2022-09-04T00:33:46.088Z,0.00
2022-09-04T00:34:46.098Z,0.00
2022-09-04T00:35:46.066Z,0.00
2022-09-04T00:36:50.126Z,0.00
2022-09-04T00:37:46.045Z,0.00
2022-09-04T00:38:46.048Z,0.00
2022-09-04T00:39:46.098Z,0.00
2022-09-04T00:40:46.014Z,0.00
2022-09-04T00:41:46.004Z,0.00
2022-09-04T00:42:45.992Z,0.00
2022-09-04T00:43:45.980Z,0.00
2022-09-04T00:44:45.991Z,0.00
2022-09-04T00:45:46.003Z,0.00
2022-09-04T00:46:45.952Z,0.00
2022-09-04T00:47:45.936Z,0.00
2022-09-04T00:48:45.937Z,0.00
2022-09-04T00:49:45.916Z,0.00
2022-09-04T00:50:45.904Z,0.00
2022-09-04T00:51:45.892Z,0.00
2022-09-04T00:52:45.883Z,0.00
2022-09-04T00:53:45.880Z,0.00
2022-09-04T00:54:45.862Z,0.00
2022-09-04T00:55:45.850Z,0.00
2022-09-04T00:56:45.840Z,0.00
2022-09-04T00:57:45.826Z,0.00
2022-09-04T00:58:45.829Z,0.00
2022-09-04T00:59:45.805Z,0.00
2022-09-04T01:00:45.826Z,0.00
2022-09-04T01:01:45.888Z,0.00
2022-09-04T01:02:45.773Z,0.00
2022-09-04T01:03:45.770Z,0.00
2022-09-04T01:04:45.751Z,0.00
2022-09-04T01:05:45.741Z,0.00
2022-09-04T01:06:45.733Z,0.00
2022-09-04T01:07:45.717Z,0.00
2022-09-04T01:08:45.719Z,0.00
2022-09-04T01:09:45.700Z,0.00
2022-09-04T01:10:45.687Z,0.00
2022-09-04T01:11:45.673Z,0.00
2022-09-04T01:12:45.665Z,0.00
2022-09-04T01:13:45.676Z,0.00
2022-09-04T01:14:46.465Z,0.00
2022-09-04T01:15:46.629Z,0.00
2022-09-04T01:16:45.720Z,0.00
2022-09-04T01:17:45.610Z,0.00
2022-09-04T01:18:45.610Z,0.00
2022-09-04T01:19:45.586Z,0.00
2022-09-04T01:20:45.581Z,0.00
2022-09-04T01:21:45.565Z,0.00
2022-09-04T01:22:45.554Z,0.00
2022-09-04T01:23:45.555Z,0.00
2022-09-04T01:24:45.532Z,0.00
2022-09-04T01:25:45.520Z,0.00
2022-09-04T01:26:45.510Z,0.00
2022-09-04T01:27:45.498Z,0.00
2022-09-04T01:28:45.505Z,0.00
2022-09-04T01:29:45.475Z,0.00
2022-09-04T01:30:45.467Z,0.00
2022-09-04T01:31:45.542Z,0.00
2022-09-04T01:32:45.449Z,0.00
2022-09-04T01:33:45.442Z,0.00
2022-09-04T01:34:45.429Z,0.00
2022-09-04T01:35:45.424Z,0.00
2022-09-04T01:36:45.401Z,0.00
2022-09-04T01:37:45.395Z,0.00
2022-09-04T01:38:45.387Z,0.00
2022-09-04T01:39:45.442Z,0.00
2022-09-04T01:40:45.355Z,0.00
2022-09-04T01:41:45.348Z,0.00
2022-09-04T01:42:45.333Z,0.00
2022-09-04T01:43:45.334Z,0.00
2022-09-04T01:44:45.313Z,0.00
2022-09-04T01:45:45.354Z,0.00
2022-09-04T01:46:45.291Z,0.00
2022-09-04T01:47:45.281Z,0.00
2022-09-04T01:48:45.289Z,0.00
2022-09-04T01:49:45.262Z,0.00
2022-09-04T01:50:45.247Z,0.00
2022-09-04T01:51:45.237Z,0.00
2022-09-04T01:52:45.228Z,0.00
2022-09-04T01:53:45.213Z,0.00
2022-09-04T01:54:45.217Z,0.00
2022-09-04T01:55:45.192Z,0.00
2022-09-04T01:56:45.181Z,0.00
2022-09-04T01:57:45.170Z,0.00
2022-09-04T01:58:45.157Z,0.00
2022-09-04T01:59:45.161Z,0.00
2022-09-04T02:00:45.180Z,0.00
2022-09-04T02:01:45.172Z,0.00
2022-09-04T02:02:45.114Z,0.00
2022-09-04T02:03:45.106Z,0.00
2022-09-04T02:04:45.104Z,0.00
2022-09-04T02:05:45.084Z,0.00
2022-09-04T02:06:45.068Z,0.00
2022-09-04T02:07:45.061Z,0.00
2022-09-04T02:08:45.049Z,0.00
2022-09-04T02:09:45.049Z,0.00
2022-09-04T02:10:45.025Z,0.00
2022-09-04T02:11:45.018Z,0.00
2022-09-04T02:12:45.005Z,0.00
2022-09-04T02:13:45.042Z,0.00
2022-09-04T02:14:44.982Z,0.00
2022-09-04T02:15:44.972Z,0.00
2022-09-04T02:16:44.982Z,0.00
2022-09-04T02:17:44.952Z,0.00
2022-09-04T02:18:44.947Z,0.00
2022-09-04T02:19:44.929Z,0.00
2022-09-04T02:20:44.915Z,0.00
2022-09-04T02:21:44.906Z,0.00
2022-09-04T02:22:44.895Z,0.00
2022-09-04T02:23:44.892Z,0.00
2022-09-04T02:24:44.871Z,0.00
2022-09-04T02:25:44.863Z,0.00
2022-09-04T02:26:44.850Z,0.00
2022-09-04T02:27:44.842Z,0.00
2022-09-04T02:28:44.839Z,0.00
2022-09-04T02:29:44.818Z,0.00
2022-09-04T02:30:44.804Z,0.00
2022-09-04T02:31:44.826Z,0.00
2022-09-04T02:32:44.784Z,0.00
2022-09-04T02:33:44.782Z,0.00
2022-09-04T02:34:44.762Z,0.00
2022-09-04T02:35:44.754Z,0.00
2022-09-04T02:36:44.739Z,0.00
2022-09-04T02:37:44.732Z,0.00
2022-09-04T02:38:44.813Z,0.00
2022-09-04T02:39:44.728Z,0.00
2022-09-04T02:40:44.702Z,0.00
2022-09-04T02:41:44.687Z,0.00
2022-09-04T02:42:44.675Z,0.00
2022-09-04T02:43:44.745Z,0.00
2022-09-04T02:44:44.653Z,0.00
2022-09-04T02:45:44.643Z,0.00
2022-09-04T02:46:44.664Z,0.00
2022-09-04T02:47:44.621Z,0.00
2022-09-04T02:48:44.621Z,0.00
2022-09-04T02:49:44.598Z,0.00
2022-09-04T02:50:44.586Z,0.00
2022-09-04T02:51:44.576Z,0.00
2022-09-04T02:52:44.563Z,0.00
2022-09-04T02:53:44.574Z,0.00
2022-09-04T02:54:44.548Z,0.00
2022-09-04T02:55:44.541Z,0.00
2022-09-04T02:56:44.520Z,0.00
2022-09-04T02:57:44.511Z,0.00
2022-09-04T02:58:44.507Z,0.00
2022-09-04T02:59:44.488Z,0.00
2022-09-04T03:00:44.538Z,0.00
2022-09-04T03:01:49.598Z,0.00
2022-09-04T03:02:48.610Z,0.00
2022-09-04T03:03:44.456Z,0.00
2022-09-04T03:04:44.441Z,0.00
2022-09-04T03:05:44.422Z,0.00
2022-09-04T03:06:44.409Z,0.00
2022-09-04T03:07:44.405Z,0.00
2022-09-04T03:08:46.095Z,0.00
2022-09-04T03:09:44.377Z,0.00
2022-09-04T03:10:44.365Z,0.00
2022-09-04T03:11:44.356Z,0.00
2022-09-04T03:12:44.343Z,0.00
2022-09-04T03:13:46.328Z,0.00
2022-09-04T03:14:44.320Z,0.00
2022-09-04T03:15:44.312Z,0.00
2022-09-04T03:16:44.303Z,0.00
2022-09-04T03:17:44.308Z,0.00
2022-09-04T03:18:44.290Z,0.00
2022-09-04T03:19:44.286Z,0.00
2022-09-04T03:20:44.269Z,0.00
2022-09-04T03:21:44.245Z,0.00
2022-09-04T03:22:44.233Z,0.00
2022-09-04T03:23:44.270Z,0.00
2022-09-04T03:24:44.210Z,0.00
2022-09-04T03:25:44.206Z,0.00
2022-09-04T03:26:44.191Z,0.00
2022-09-04T03:27:44.179Z,0.00
2022-09-04T03:28:44.180Z,0.00
2022-09-04T03:29:44.156Z,0.00
2022-09-04T03:30:44.150Z,0.00
2022-09-04T03:31:44.193Z,0.00
2022-09-04T03:32:44.167Z,0.00
2022-09-04T03:33:44.127Z,0.00
2022-09-04T03:34:44.102Z,0.00
2022-09-04T03:35:44.100Z,0.00
2022-09-04T03:36:44.080Z,0.00
2022-09-04T03:37:44.071Z,0.00
2022-09-04T03:38:44.071Z,0.00
2022-09-04T03:39:44.116Z,0.00
2022-09-04T03:40:44.034Z,0.00
2022-09-04T03:41:44.025Z,0.00
2022-09-04T03:42:44.014Z,0.00
2022-09-04T03:43:44.015Z,0.00
2022-09-04T03:44:43.994Z,0.00
2022-09-04T03:45:43.982Z,0.00
2022-09-04T03:46:44.042Z,0.00
2022-09-04T03:47:58.889Z,0.00
2022-09-04T03:48:43.954Z,0.00
2022-09-04T03:49:43.936Z,0.00
2022-09-04T03:50:43.923Z,4.00
2022-09-04T03:51:43.914Z,4.00
2022-09-04T03:52:43.902Z,0.00
2022-09-04T03:53:43.902Z,4.00
2022-09-04T03:54:43.880Z,4.00
2022-09-04T03:55:43.873Z,4.00
2022-09-04T03:56:43.859Z,4.00
2022-09-04T03:57:43.849Z,4.00
2022-09-04T03:58:43.851Z,4.00
2022-09-04T03:59:43.826Z,8.00
2022-09-04T04:00:43.910Z,8.00
2022-09-04T04:01:43.802Z,8.00
2022-09-04T04:02:43.835Z,8.00
2022-09-04T04:03:43.794Z,12.00
2022-09-04T04:04:43.769Z,8.00
2022-09-04T04:05:43.769Z,12.00
2022-09-04T04:06:43.763Z,12.00
2022-09-04T04:07:43.760Z,16.00
2022-09-04T04:08:43.747Z,16.00
2022-09-04T04:09:43.746Z,24.00
2022-09-04T04:10:43.721Z,28.00
2022-09-04T04:11:43.881Z,28.00
2022-09-04T04:12:43.682Z,32.00
2022-09-04T04:13:43.691Z,36.00
2022-09-04T04:14:43.659Z,40.00
2022-09-04T04:15:43.731Z,44.00
2022-09-04T04:16:43.718Z,52.00
2022-09-04T04:17:43.628Z,60.00
2022-09-04T04:18:43.629Z,68.00
2022-09-04T04:19:43.606Z,76.00
2022-09-04T04:20:43.592Z,88.00
2022-09-04T04:21:43.582Z,96.00
2022-09-04T04:22:43.570Z,104.00
2022-09-04T04:23:43.575Z,112.00
2022-09-04T04:24:43.551Z,128.00
2022-09-04T04:25:43.540Z,136.00
2022-09-04T04:26:43.528Z,148.00
2022-09-04T04:27:43.518Z,160.00
2022-09-04T04:28:43.514Z,172.00
2022-09-04T04:29:43.496Z,188.00
2022-09-04T04:30:43.482Z,200.00
2022-09-04T04:31:43.536Z,216.00
2022-09-04T04:32:43.461Z,232.00
2022-09-04T04:33:43.460Z,252.00
2022-09-04T04:34:43.438Z,268.00
2022-09-04T04:35:43.429Z,284.00
2022-09-04T04:36:43.415Z,300.00
2022-09-04T04:37:43.425Z,324.00
2022-09-04T04:38:43.394Z,344.00
2022-09-04T04:39:43.416Z,364.00
2022-09-04T04:40:43.373Z,380.00
2022-09-04T04:41:43.364Z,404.00
2022-09-04T04:42:43.365Z,420.00
2022-09-04T04:43:43.342Z,440.00
2022-09-04T04:44:43.328Z,464.00
2022-09-04T04:45:43.318Z,484.00
2022-09-04T04:46:43.336Z,508.00
2022-09-04T04:47:43.306Z,532.00
2022-09-04T04:48:43.284Z,556.00
2022-09-04T04:49:43.273Z,580.00
2022-09-04T04:50:43.261Z,612.00
2022-09-04T04:51:43.251Z,636.00
2022-09-04T04:52:43.250Z,664.00
2022-09-04T04:53:43.230Z,692.00
2022-09-04T04:54:43.217Z,724.00
2022-09-04T04:55:43.206Z,744.00
2022-09-04T04:56:43.196Z,760.00
2022-09-04T04:57:43.195Z,784.00
2022-09-04T04:58:43.173Z,800.00
2022-09-04T04:59:43.163Z,824.00
2022-09-04T05:00:43.158Z,852.00
2022-09-04T05:01:43.320Z,860.00
2022-09-04T05:02:43.334Z,896.00
2022-09-04T05:03:43.124Z,928.00
2022-09-04T05:04:43.109Z,904.00
2022-09-04T05:05:43.099Z,976.00
2022-09-04T05:06:43.085Z,1080.00
2022-09-04T05:07:43.083Z,1024.00
2022-09-04T05:08:43.062Z,1044.00
2022-09-04T05:09:43.052Z,1068.00
2022-09-04T05:10:43.041Z,1088.00
2022-09-04T05:11:43.031Z,1112.00
2022-09-04T05:12:43.030Z,1152.00
2022-09-04T05:13:43.039Z,1160.00
2022-09-04T05:14:42.997Z,1188.00
2022-09-04T05:16:05.117Z,1220.00
2022-09-04T05:16:43.999Z,1244.00
2022-09-04T05:17:42.983Z,1276.00
2022-09-04T05:18:42.950Z,1300.00
2022-09-04T05:19:42.941Z,1336.00
2022-09-04T05:20:42.929Z,1368.00
2022-09-04T05:21:42.945Z,1408.00
2022-09-04T05:22:42.918Z,1444.00
2022-09-04T05:23:42.897Z,1480.00
2022-09-04T05:24:42.886Z,1520.00
2022-09-04T05:25:42.882Z,1552.00
2022-09-04T05:26:42.868Z,1584.00
2022-09-04T05:27:42.878Z,1628.00
2022-09-04T05:28:42.841Z,1656.00
2022-09-04T05:29:42.831Z,1696.00
2022-09-04T05:30:42.821Z,1728.00
2022-09-04T05:31:42.832Z,1756.00
2022-09-04T05:32:42.807Z,1792.00
2022-09-04T05:33:42.789Z,1840.00
2022-09-04T05:34:42.774Z,1888.00
2022-09-04T05:35:42.765Z,1908.00
2022-09-04T05:36:42.791Z,1928.00
2022-09-04T05:37:42.783Z,2028.00
2022-09-04T05:38:42.753Z,2132.00
2022-09-04T05:39:42.741Z,2216.00
2022-09-04T05:40:42.709Z,2280.00
2022-09-04T05:41:49.423Z,2340.00
2022-09-04T05:42:42.698Z,2384.00
2022-09-04T05:43:42.677Z,2400.00
2022-09-04T05:44:42.664Z,2424.00
2022-09-04T05:45:42.657Z,2440.00
2022-09-04T05:46:42.727Z,2468.00
2022-09-04T05:47:42.642Z,2568.00
2022-09-04T05:48:42.620Z,2684.00
2022-09-04T05:49:42.611Z,2752.00
2022-09-04T05:50:42.598Z,3000.00
2022-09-04T05:51:42.591Z,3076.00
2022-09-04T05:52:42.585Z,3284.00
2022-09-04T05:53:42.569Z,3588.00
2022-09-04T05:54:42.556Z,3572.00
2022-09-04T05:55:42.544Z,3684.00
2022-09-04T05:56:42.542Z,3636.00
2022-09-04T05:57:42.534Z,3352.00
2022-09-04T05:58:42.513Z,4032.00
2022-09-04T05:59:43.917Z,3248.00
2022-09-04T06:00:42.490Z,3268.00
2022-09-04T06:01:42.527Z,3636.00
2022-09-04T06:02:42.536Z,3688.00
2022-09-04T06:03:42.457Z,3984.00
2022-09-04T06:04:42.450Z,3828.00
2022-09-04T06:05:42.434Z,3672.00
2022-09-04T06:06:42.427Z,3760.00
2022-09-04T06:07:42.421Z,3860.00
2022-09-04T06:08:42.403Z,3912.00
2022-09-04T06:09:42.390Z,3792.00
2022-09-04T06:10:42.381Z,3956.00
2022-09-04T06:11:42.369Z,4012.00
2022-09-04T06:12:42.370Z,4092.00
2022-09-04T06:13:42.346Z,4052.00
2022-09-04T06:14:42.339Z,3972.00
2022-09-04T06:15:42.360Z,4028.00
2022-09-04T06:16:42.317Z,4112.00
2022-09-04T06:17:42.315Z,4200.00
2022-09-04T06:18:42.294Z,4380.00
2022-09-04T06:19:42.282Z,4556.00
2022-09-04T06:20:42.278Z,4644.00
2022-09-04T06:21:42.260Z,4672.00
2022-09-04T06:22:42.259Z,4708.00
2022-09-04T06:23:42.237Z,5052.00
2022-09-04T06:24:42.235Z,4916.00
2022-09-04T06:25:42.215Z,4588.00
2022-09-04T06:26:42.207Z,4904.00
2022-09-04T06:27:42.206Z,5404.00
2022-09-04T06:28:42.184Z,4212.00
2022-09-04T06:29:42.172Z,4388.00
2022-09-04T06:30:42.166Z,4076.00
2022-09-04T06:31:42.192Z,4260.00
2022-09-04T06:32:42.150Z,3936.00
2022-09-04T06:33:42.126Z,3956.00
2022-09-04T06:34:42.118Z,4064.00
2022-09-04T06:35:42.499Z,4132.00
2022-09-04T06:36:42.096Z,4004.00
2022-09-04T06:37:42.091Z,3980.00
2022-09-04T06:38:42.076Z,3888.00
2022-09-04T06:39:42.137Z,3864.00
2022-09-04T06:40:42.050Z,3928.00
2022-09-04T06:41:42.038Z,3828.00
2022-09-04T06:42:42.038Z,3916.00
2022-09-04T06:43:42.035Z,3980.00
2022-09-04T06:44:42.008Z,4724.00
2022-09-04T06:45:41.996Z,5736.00
2022-09-04T06:46:42.081Z,4756.00
2022-09-04T06:47:41.985Z,9024.00
2022-09-04T06:48:41.964Z,6964.00
2022-09-04T06:49:41.950Z,4640.00
2022-09-04T06:50:41.942Z,4876.00
2022-09-04T06:51:41.927Z,4448.00
2022-09-04T06:52:41.929Z,4872.00
2022-09-04T06:53:41.909Z,10192.00
2022-09-04T06:54:41.897Z,10484.00
2022-09-04T06:55:41.883Z,12576.00
2022-09-04T06:56:41.874Z,15168.00
2022-09-04T06:57:41.871Z,11168.00
2022-09-04T06:58:41.853Z,14720.00
2022-09-04T06:59:41.840Z,10916.00
2022-09-04T07:00:41.832Z,8268.00
2022-09-04T07:01:41.915Z,11124.00
2022-09-04T07:02:41.945Z,8832.00
2022-09-04T07:03:41.797Z,6556.00
2022-09-04T07:04:41.853Z,6992.00
2022-09-04T07:05:41.805Z,9780.00
2022-09-04T07:06:41.773Z,15336.00
2022-09-04T07:07:41.761Z,17216.00
2022-09-04T07:08:41.745Z,12428.00
2022-09-04T07:09:41.733Z,14264.00
2022-09-04T07:10:41.723Z,17664.00
2022-09-04T07:11:41.709Z,11384.00
2022-09-04T07:12:41.708Z,16992.00
2022-09-04T07:13:41.686Z,18048.00
2022-09-04T07:14:41.681Z,10284.00
2022-09-04T07:15:41.844Z,11088.00
2022-09-04T07:16:41.655Z,26496.00
2022-09-04T07:17:41.655Z,25888.00
2022-09-04T07:18:41.636Z,24320.00
2022-09-04T07:19:41.622Z,23648.00
2022-09-04T07:20:41.613Z,19584.00
2022-09-04T07:21:41.602Z,19200.00
2022-09-04T07:22:41.602Z,21504.00
2022-09-04T07:23:41.581Z,23200.00
2022-09-04T07:24:41.570Z,22848.00
2022-09-04T07:25:41.559Z,24384.00
2022-09-04T07:26:41.549Z,25632.00
2022-09-04T07:27:41.543Z,25408.00
2022-09-04T07:28:41.525Z,27744.00
2022-09-04T07:29:41.512Z,28032.00
2022-09-04T07:30:41.503Z,23744.00
2022-09-04T07:31:41.620Z,19328.00
2022-09-04T07:32:41.495Z,23840.00
2022-09-04T07:33:41.471Z,24672.00
2022-09-04T07:34:41.460Z,31200.00
2022-09-04T07:35:41.448Z,24352.00
2022-09-04T07:36:41.440Z,21984.00
2022-09-04T07:37:41.436Z,18880.00
2022-09-04T07:38:41.417Z,31776.00
2022-09-04T07:39:41.480Z,29824.00
2022-09-04T07:40:41.396Z,22432.00
2022-09-04T07:41:41.382Z,12304.00
2022-09-04T07:42:41.382Z,12440.00
2022-09-04T07:43:41.366Z,13036.00
2022-09-04T07:44:41.354Z,13452.00
2022-09-04T07:45:41.364Z,16960.00
2022-09-04T07:46:41.438Z,29344.00
2022-09-04T07:47:41.329Z,32768.00
2022-09-04T07:48:41.310Z,33664.00
2022-09-04T07:49:41.300Z,34112.00
2022-09-04T07:50:41.289Z,33376.00
2022-09-04T07:51:41.275Z,32224.00
2022-09-04T07:52:41.275Z,23776.00
2022-09-04T07:53:41.253Z,32992.00
2022-09-04T07:54:41.245Z,37184.00
2022-09-04T07:55:41.240Z,36864.00
2022-09-04T07:56:41.224Z,26304.00
2022-09-04T07:57:41.226Z,36224.00
2022-09-04T07:58:41.202Z,34592.00
2022-09-04T07:59:41.190Z,32832.00
2022-09-04T08:00:41.181Z,37152.00
2022-09-04T08:01:41.213Z,38560.00
2022-09-04T08:02:41.162Z,37824.00
2022-09-04T08:03:53.696Z,36928.00
2022-09-04T08:04:42.200Z,39360.00
2022-09-04T08:05:41.126Z,40096.00
2022-09-04T08:06:41.131Z,40672.00
2022-09-04T08:07:41.106Z,41952.00
2022-09-04T08:08:41.097Z,44576.00
2022-09-04T08:09:41.084Z,43648.00
2022-09-04T08:10:41.074Z,41600.00
2022-09-04T08:11:41.077Z,42336.00
2022-09-04T08:12:41.060Z,36448.00
2022-09-04T08:13:41.042Z,41344.00
2022-09-04T08:14:41.042Z,45152.00
2022-09-04T08:15:42.851Z,44832.00
2022-09-04T08:16:41.024Z,44512.00
2022-09-04T08:17:41.015Z,45824.00
2022-09-04T08:18:40.993Z,46912.00
2022-09-04T08:19:40.981Z,46688.00
2022-09-04T08:20:40.972Z,46304.00
2022-09-04T08:21:40.975Z,46304.00
2022-09-04T08:22:40.951Z,44960.00
2022-09-04T08:23:40.940Z,44288.00
2022-09-04T08:24:40.933Z,43424.00
2022-09-04T08:25:40.920Z,43616.00
2022-09-04T08:26:40.920Z,45600.00
2022-09-04T08:27:44.118Z,45984.00
2022-09-04T08:28:45.505Z,47232.00
2022-09-04T08:29:41.877Z,47872.00
2022-09-04T08:30:40.956Z,47200.00
2022-09-04T08:31:40.869Z,49504.00
2022-09-04T08:32:40.851Z,46816.00
2022-09-04T08:33:40.839Z,47584.00
2022-09-04T08:34:40.829Z,44640.00
2022-09-04T08:35:40.817Z,42912.00
2022-09-04T08:36:40.822Z,42272.00
2022-09-04T08:37:40.797Z,42304.00
2022-09-04T08:38:40.789Z,43936.00
2022-09-04T08:39:40.827Z,44288.00
2022-09-04T08:40:40.828Z,45536.00
2022-09-04T08:41:40.764Z,45856.00
2022-09-04T08:42:40.745Z,44896.00
2022-09-04T08:43:40.737Z,46784.00
2022-09-04T08:44:40.728Z,48064.00
2022-09-04T08:45:42.541Z,46240.00
2022-09-04T08:46:40.786Z,45120.00
2022-09-04T08:47:40.691Z,46816.00
2022-09-04T08:48:40.686Z,46976.00
2022-09-04T08:49:40.672Z,46752.00
2022-09-04T08:50:40.662Z,46720.00
2022-09-04T08:51:40.663Z,46592.00
2022-09-04T08:52:40.643Z,45504.00
2022-09-04T08:53:40.630Z,44224.00
2022-09-04T08:54:40.620Z,44480.00
2022-09-04T08:55:40.618Z,44928.00
2022-09-04T08:56:40.609Z,44384.00
2022-09-04T08:57:40.590Z,44032.00
2022-09-04T08:58:43.349Z,43264.00
2022-09-04T08:59:41.568Z,42208.00
2022-09-04T09:00:40.561Z,40896.00
2022-09-04T09:01:40.661Z,41696.00
2022-09-04T09:02:40.668Z,42592.00
2022-09-04T09:03:40.528Z,43616.00
2022-09-04T09:04:40.520Z,43392.00
2022-09-04T09:05:40.508Z,43744.00
2022-09-04T09:06:40.511Z,44192.00
2022-09-04T09:07:40.488Z,43968.00
2022-09-04T09:08:40.478Z,45632.00
2022-09-04T09:09:40.466Z,47712.00
2022-09-04T09:10:40.457Z,46400.00
2022-09-04T09:11:40.468Z,45984.00
2022-09-04T09:12:41.243Z,44864.00
2022-09-04T09:13:40.425Z,42112.00
2022-09-04T09:14:40.428Z,41760.00
2022-09-04T09:15:40.403Z,41472.00
2022-09-04T09:16:40.464Z,43168.00
2022-09-04T09:17:40.383Z,44736.00
2022-09-04T09:18:40.924Z,45472.00
2022-09-04T09:19:40.363Z,47232.00
2022-09-04T09:20:40.377Z,47808.00
2022-09-04T09:21:40.377Z,47296.00
2022-09-04T09:22:40.339Z,47168.00
2022-09-04T09:23:40.322Z,47072.00
2022-09-04T09:24:40.311Z,46816.00
2022-09-04T09:25:43.938Z,45280.00
2022-09-04T09:26:40.302Z,44448.00
2022-09-04T09:27:40.279Z,43808.00
2022-09-04T09:28:40.275Z,44384.00
2022-09-04T09:29:40.260Z,45056.00
2022-09-04T09:30:40.341Z,46016.00
2022-09-04T09:31:40.250Z,47712.00
2022-09-04T09:32:40.230Z,48928.00
2022-09-04T09:33:40.222Z,51232.00
2022-09-04T09:34:40.210Z,49824.00
2022-09-04T09:35:40.198Z,52000.00
2022-09-04T09:36:40.202Z,52352.00
2022-09-04T09:37:40.178Z,51328.00
2022-09-04T09:38:40.175Z,50784.00
2022-09-04T09:39:40.224Z,51392.00
2022-09-04T09:40:40.148Z,51136.00
2022-09-04T09:41:40.148Z,51232.00
2022-09-04T09:42:40.128Z,51552.00
2022-09-04T09:43:40.117Z,52896.00
2022-09-04T09:44:40.108Z,55808.00
2022-09-04T09:45:40.113Z,55680.00
2022-09-04T09:46:40.099Z,51392.00
2022-09-04T09:47:40.076Z,49824.00
2022-09-04T09:48:40.069Z,51840.00
2022-09-04T09:49:40.056Z,54880.00
2022-09-04T09:50:40.060Z,53536.00
2022-09-04T09:51:40.035Z,54816.00
2022-09-04T09:52:40.026Z,55296.00
2022-09-04T09:53:43.798Z,57824.00
2022-09-04T09:54:41.006Z,58112.00
2022-09-04T09:55:40.005Z,60320.00
2022-09-04T09:56:39.987Z,62816.00
2022-09-04T09:57:39.976Z,61216.00
2022-09-04T09:58:39.971Z,62560.00
2022-09-04T09:59:39.956Z,63328.00
2022-09-04T10:00:39.950Z,64672.00
2022-09-04T10:01:40.010Z,62784.00
2022-09-04T10:02:39.963Z,61056.00
2022-09-04T10:03:39.914Z,60672.00
2022-09-04T10:04:39.906Z,60448.00
2022-09-04T10:05:39.909Z,60928.00
2022-09-04T10:06:39.894Z,61536.00
2022-09-04T10:07:39.895Z,60320.00
2022-09-04T10:08:39.869Z,56896.00
2022-09-04T10:09:39.855Z,60000.00
2022-09-04T10:10:39.862Z,62304.00
2022-09-04T10:11:39.839Z,63264.00
2022-09-04T10:12:39.825Z,62144.00
2022-09-04T10:13:39.815Z,63296.00
2022-09-04T10:14:39.805Z,60640.00
2022-09-04T10:15:39.794Z,60992.00
2022-09-04T10:16:39.814Z,63136.00
2022-09-04T10:17:39.775Z,60480.00
2022-09-04T10:18:39.762Z,64672.00
2022-09-04T10:19:39.762Z,64512.00
2022-09-04T10:20:39.743Z,62656.00
2022-09-04T10:21:39.741Z,63392.00
2022-09-04T10:22:39.723Z,64736.00
2022-09-04T10:23:39.714Z,66144.00
2022-09-04T10:24:39.703Z,64064.00
2022-09-04T10:25:39.693Z,63936.00
2022-09-04T10:26:39.692Z,63712.00
2022-09-04T10:27:43.825Z,64320.00
2022-09-04T10:28:39.661Z,64576.00
2022-09-04T10:29:39.652Z,59232.00
2022-09-04T10:30:39.680Z,28992.00
2022-09-04T10:31:39.632Z,9624.00
2022-09-04T10:32:39.624Z,8496.00
2022-09-04T10:33:39.612Z,7932.00
2022-09-04T10:34:39.600Z,7664.00
2022-09-04T10:35:39.607Z,7440.00
2022-09-04T10:36:39.582Z,7504.00
2022-09-04T10:37:39.586Z,7380.00
2022-09-04T10:38:39.562Z,7308.00
2022-09-04T10:39:39.612Z,7188.00
2022-09-04T10:40:43.792Z,7068.00
2022-09-04T10:41:40.528Z,7020.00
2022-09-04T10:42:39.517Z,6932.00
2022-09-04T10:43:39.514Z,6824.00
2022-09-04T10:44:39.497Z,6728.00
2022-09-04T10:45:39.582Z,6572.00
2022-09-04T10:46:39.476Z,6568.00
2022-09-04T10:47:39.466Z,6536.00
2022-09-04T10:48:39.455Z,6524.00
2022-09-04T10:49:39.449Z,6480.00
2022-09-04T10:50:39.442Z,6440.00
2022-09-04T10:51:39.424Z,6296.00
2022-09-04T10:52:39.412Z,6180.00
2022-09-04T10:53:39.404Z,6124.00
2022-09-04T10:54:39.390Z,5988.00
2022-09-04T10:55:39.391Z,6016.00
2022-09-04T10:56:39.369Z,6028.00
2022-09-04T10:57:39.360Z,5916.00
2022-09-04T10:58:39.348Z,5840.00
2022-09-04T10:59:39.346Z,5792.00
2022-09-04T11:00:39.330Z,5784.00
2022-09-04T11:01:39.353Z,5692.00
2022-09-04T11:02:39.364Z,5640.00
2022-09-04T11:03:39.294Z,5560.00
2022-09-04T11:04:39.293Z,5504.00
2022-09-04T11:05:39.273Z,5352.00
2022-09-04T11:06:39.260Z,5312.00
2022-09-04T11:07:39.252Z,5296.00
2022-09-04T11:08:39.237Z,5292.00
2022-09-04T11:09:39.237Z,5288.00
2022-09-04T11:10:39.215Z,5300.00
2022-09-04T11:11:39.207Z,5324.00
2022-09-04T11:12:39.192Z,5216.00
2022-09-04T11:13:39.188Z,5280.00
2022-09-04T11:14:39.186Z,5204.00
2022-09-04T11:15:39.161Z,5188.00
2022-09-04T11:16:39.222Z,5196.00
2022-09-04T11:17:39.138Z,5196.00
2022-09-04T11:18:39.126Z,5184.00
2022-09-04T11:19:39.126Z,5144.00
2022-09-04T11:20:39.101Z,5176.00
2022-09-04T11:21:39.101Z,5112.00
2022-09-04T11:22:39.083Z,5056.00
2022-09-04T11:23:39.094Z,4964.00
2022-09-04T11:24:39.068Z,4908.00
2022-09-04T11:25:39.055Z,4868.00
2022-09-04T11:26:39.039Z,4924.00
2022-09-04T11:27:39.033Z,4880.00
2022-09-04T11:28:39.018Z,4884.00
2022-09-04T11:29:39.029Z,4932.00
2022-09-04T11:30:38.997Z,4920.00
2022-09-04T11:31:40.099Z,4888.00
2022-09-04T11:32:38.973Z,4836.00
2022-09-04T11:33:38.974Z,4732.00
2022-09-04T11:34:38.950Z,4752.00
2022-09-04T11:35:38.989Z,4764.00
2022-09-04T11:36:38.930Z,4740.00
2022-09-04T11:37:38.918Z,4736.00
2022-09-04T11:38:38.914Z,4752.00
2022-09-04T11:39:39.015Z,4704.00
2022-09-04T11:40:38.884Z,4648.00
2022-09-04T11:41:38.888Z,4564.00
2022-09-04T11:42:38.890Z,4512.00
2022-09-04T11:43:38.853Z,4436.00
2022-09-04T11:44:38.860Z,4324.00
2022-09-04T11:45:38.870Z,4296.00
2022-09-04T11:46:38.821Z,4276.00
2022-09-04T11:47:38.810Z,4212.00
2022-09-04T11:48:38.809Z,4188.00
2022-09-04T11:49:38.786Z,4156.00
2022-09-04T11:50:38.777Z,4140.00
2022-09-04T11:51:38.766Z,4092.00
2022-09-04T11:52:38.753Z,4024.00
2022-09-04T11:53:38.762Z,3960.00
2022-09-04T11:54:38.732Z,3860.00
2022-09-04T11:55:38.722Z,3844.00
2022-09-04T11:56:38.710Z,3836.00
2022-09-04T11:57:38.699Z,3812.00
2022-09-04T11:58:38.697Z,3804.00
2022-09-04T11:59:38.690Z,3752.00
2022-09-04T12:00:38.665Z,3744.00
2022-09-04T12:01:38.656Z,3720.00
2022-09-04T12:02:38.743Z,3696.00
2022-09-04T12:03:38.684Z,3692.00
2022-09-04T12:04:38.631Z,3692.00
2022-09-04T12:05:38.614Z,3676.00
2022-09-04T12:06:38.602Z,3732.00
2022-09-04T12:07:42.977Z,3788.00
2022-09-04T12:08:38.583Z,3812.00
2022-09-04T12:09:38.577Z,3868.00
2022-09-04T12:10:38.569Z,3912.00
2022-09-04T12:11:38.562Z,3928.00
2022-09-04T12:12:38.558Z,3820.00
2022-09-04T12:13:38.527Z,3624.00
2022-09-04T12:14:38.524Z,3496.00
2022-09-04T12:15:38.504Z,3436.00
2022-09-04T12:16:38.586Z,3372.00
2022-09-04T12:17:38.483Z,3344.00
2022-09-04T12:18:38.469Z,3296.00
2022-09-04T12:19:38.472Z,3240.00
2022-09-04T12:20:38.448Z,3224.00
2022-09-04T12:21:38.444Z,3208.00
2022-09-04T12:22:38.451Z,3196.00
2022-09-04T12:23:38.418Z,3204.00